WXForecasting.com
 BROWN COUNTY, SD  -  River Flood Warning River Flood Warning  
Aberdeen, SD - Weather Station Data
Daily Summary for April 16, 2018 Units:  Metric    English   Both
Next Day »
Daily Weekly Monthly Yearly Custom
  High: Low: Average:
Temperature: 8.2 °C -5.8 °C 1.4 °C
Dew Point: -2.8 °C -8.3 °C -5.4 °C
Humidity: 83% 41% 63%
Wind Speed: 14.5km/h 0km/h 4.5km/h
Wind Gust: 19.3km/h - -
Wind- - ESE
Pressure: 1023.9 hPa 1016.8 hPa -
Precipitation: 0 mm    
Historical Graphs
 
 
Tabular Data for April 16, 2018
Time Temperature Dew Point Pressure Wind Wind Speed Wind Gust Humidity Rainfall Rate (Hourly) solar Conditions
00:01 -2.2 °C -5 °C 1023.9 hPa North 6.4 km/h 9.7 km/h 80% 0 mm 0 W/m2
00:16 -2.3 °C -5 °C 1023.6 hPa North 6.4 km/h 8 km/h 81% 0 mm 0 W/m2
00:31 -2.4 °C -5 °C 1023.6 hPa North 1.6 km/h 8 km/h 81% 0 mm 0 W/m2
00:46 -2.6 °C -5.6 °C 1023.6 hPa North 4.8 km/h 8 km/h 80% 0 mm 0 W/m2
01:01 -2.6 °C -5.6 °C 1023.6 hPa Calm   8 km/h 80% 0 mm 0 W/m2
01:16 -2.7 °C -6.1 °C 1023.6 hPa North 3.2 km/h 4.8 km/h 79% 0 mm 0 W/m2
01:31 -3 °C -6.1 °C 1023.6 hPa North 3.2 km/h 4.8 km/h 79% 0 mm 0 W/m2
01:46 -3.2 °C -6.1 °C 1023.6 hPa North 1.6 km/h 4.8 km/h 80% 0 mm 0 W/m2
02:16 -3.4 °C -6.7 °C 1023.6 hPa Calm   4.8 km/h 80% 0 mm 0 W/m2
02:31 -3.5 °C -6.1 °C 1023.6 hPa North 3.2 km/h 6.4 km/h 81% 0 mm 0 W/m2
02:46 -3.7 °C -6.7 °C 1023.6 hPa North 3.2 km/h 8 km/h 81% 0 mm 0 W/m2
03:01 -3.8 °C -6.7 °C 1023.6 hPa Calm   4.8 km/h 81% 0 mm 0 W/m2
03:16 -3.9 °C -6.7 °C 1023.6 hPa North 3.2 km/h 6.4 km/h 81% 0 mm 0 W/m2
03:32 -3.9 °C -6.7 °C 1023.2 hPa North 3.2 km/h 8 km/h 82% 0 mm 0 W/m2
03:46 -4.1 °C -6.7 °C 1022.9 hPa North 3.2 km/h 4.8 km/h 81% 0 mm 0 W/m2
04:01 -4.3 °C -7.2 °C 1022.6 hPa Calm   4.8 km/h 82% 0 mm 0 W/m2
04:17 -4.4 °C -7.2 °C 1022.6 hPa North 3.2 km/h 6.4 km/h 82% 0 mm 0 W/m2
04:32 -4.6 °C -7.2 °C 1022.6 hPa North 1.6 km/h 6.4 km/h 82% 0 mm 0 W/m2
04:47 -4.9 °C -7.2 °C 1022.9 hPa Calm   1.6 km/h 83% 0 mm 0 W/m2
05:02 -4.8 °C -7.2 °C 1022.9 hPa North 1.6 km/h 4.8 km/h 83% 0 mm 0 W/m2
05:17 -4.8 °C -7.2 °C 1022.9 hPa North 3.2 km/h 4.8 km/h 82% 0 mm 0 W/m2
05:32 -4.9 °C -7.2 °C 1022.9 hPa Calm   3.2 km/h 82% 0 mm 0 W/m2
05:47 -4.9 °C -7.8 °C 1022.9 hPa North 3.2 km/h 4.8 km/h 82% 0 mm 0 W/m2
06:02 -5.1 °C -7.8 °C 1022.9 hPa North 1.6 km/h 4.8 km/h 82% 0 mm 0 W/m2
06:17 -5.3 °C -7.8 °C 1022.9 hPa North 1.6 km/h 4.8 km/h 82% 0 mm 0 W/m2
06:32 -5.4 °C -7.8 °C 1022.9 hPa Calm   4.8 km/h 82% 0 mm 0 W/m2
06:47 -5.7 °C -8.3 °C 1022.9 hPa Calm   3.2 km/h 82% 0 mm 5 W/m2
07:02 -5.8 °C -8.3 °C 1022.9 hPa Calm   3.2 km/h 83% 0 mm 14 W/m2
07:17 -5.8 °C -8.3 °C 1022.9 hPa North 1.6 km/h 4.8 km/h 83% 0 mm 21 W/m2
07:32 -5.4 °C -7.8 °C 1022.9 hPa North 1.6 km/h 6.4 km/h 83% 0 mm 30 W/m2
07:47 -4.8 °C -7.2 °C 1022.9 hPa North 4.8 km/h 9.7 km/h 83% 0 mm 35 W/m2
08:02 -4 °C -6.7 °C 1022.9 hPa North 4.8 km/h 12.9 km/h 81% 0 mm 169 W/m2
08:17 -3.1 °C -6.1 °C 1022.9 hPa North 8 km/h 9.7 km/h 79% 0 mm 230 W/m2
08:32 -2.3 °C -5.6 °C 1023.2 hPa North 8 km/h 8 km/h 77% 0 mm 295 W/m2
08:47 -1.3 °C -5.6 °C 1023.2 hPa North 4.8 km/h 8 km/h 74% 0 mm 338 W/m2
09:02 -0.8 °C -5 °C 1023.2 hPa North 3.2 km/h 9.7 km/h 72% 0 mm 387 W/m2
09:17 -0.2 °C -5 °C 1023.2 hPa North 9.7 km/h 9.7 km/h 70% 0 mm 431 W/m2
09:32 0.2 °C -5 °C 1023.2 hPa North 4.8 km/h 8 km/h 69% 0 mm 475 W/m2
09:47 0.9 °C -5 °C 1022.9 hPa North 4.8 km/h 9.7 km/h 66% 0 mm 517 W/m2
10:02 1.5 °C -5 °C 1022.9 hPa North 3.2 km/h 8 km/h 62% 0 mm 557 W/m2
10:18 1.6 °C -6.1 °C 1022.6 hPa North 6.4 km/h 12.9 km/h 58% 0 mm 596 W/m2
10:33 2.2 °C -6.1 °C 1022.6 hPa North 6.4 km/h 14.5 km/h 55% 0 mm 633 W/m2
10:48 2.3 °C -7.2 °C 1022.6 hPa North 3.2 km/h 16.1 km/h 51% 0 mm 670 W/m2
11:03 2.6 °C -7.2 °C 1022.6 hPa North 1.6 km/h 12.9 km/h 50% 0 mm 703 W/m2
11:18 3.2 °C -7.2 °C 1022.2 hPa NNW 9.7 km/h 14.5 km/h 47% 0 mm 733 W/m2
11:33 3.6 °C -7.2 °C 1021.9 hPa NE 6.4 km/h 12.9 km/h 45% 0 mm 765 W/m2
11:48 3.5 °C -6.7 °C 1021.9 hPa NNE 6.4 km/h 17.7 km/h 47% 0 mm 789 W/m2
12:03 4 °C -6.7 °C 1021.6 hPa NNE 9.7 km/h 16.1 km/h 46% 0 mm 809 W/m2
12:18 4.1 °C -6.1 °C 1021.6 hPa North 6.4 km/h 19.3 km/h 47% 0 mm 828 W/m2
12:33 4.6 °C -5.6 °C 1021.2 hPa North 12.9 km/h 17.7 km/h 48% 0 mm 840 W/m2
12:48 5 °C -6.1 °C 1020.9 hPa North 8 km/h 16.1 km/h 46% 0 mm 849 W/m2
13:03 5.3 °C -5.6 °C 1020.9 hPa NNW 1.6 km/h 14.5 km/h 46% 0 mm 856 W/m2
13:18 5.2 °C -7.2 °C 1020.9 hPa NE 8 km/h 14.5 km/h 41% 0 mm 860 W/m2
13:33 5.3 °C -5.6 °C 1020.5 hPa NNE 9.7 km/h 14.5 km/h 45% 0 mm 860 W/m2
13:48 6.1 °C -5.6 °C 1020.5 hPa NNW 14.5 km/h 17.7 km/h 44% 0 mm 856 W/m2
14:03 5.8 °C -6.1 °C 1020.2 hPa NNW 1.6 km/h 9.7 km/h 43% 0 mm 847 W/m2
14:18 6.2 °C -6.1 °C 1020.2 hPa NNE 9.7 km/h 17.7 km/h 41% 0 mm 838 W/m2
14:34 6.4 °C -5 °C 1020.2 hPa ENE 1.6 km/h 8 km/h 44% 0 mm 821 W/m2
14:49 6.5 °C -5 °C 1019.9 hPa NNE 8 km/h 16.1 km/h 44% 0 mm 802 W/m2
15:04 6.8 °C -5 °C 1019.9 hPa North 6.4 km/h 16.1 km/h 43% 0 mm 775 W/m2
15:19 7.1 °C -4.4 °C 1019.9 hPa NE 9.7 km/h 14.5 km/h 44% 0 mm 759 W/m2
15:34 7.2 °C -4.4 °C 1019.5 hPa NE 3.2 km/h 14.5 km/h 44% 0 mm 735 W/m2
15:49 7.3 °C -3.9 °C 1019.2 hPa NNE 4.8 km/h 14.5 km/h 45% 0 mm 705 W/m2
16:04 7.8 °C -2.8 °C 1018.8 hPa ESE 1.6 km/h 12.9 km/h 47% 0 mm 664 W/m2
16:19 7.8 °C -2.8 °C 1018.8 hPa NE 3.2 km/h 14.5 km/h 47% 0 mm 631 W/m2
16:34 7.9 °C -3.3 °C 1018.8 hPa ENE 1.6 km/h 17.7 km/h 46% 0 mm 598 W/m2
16:49 7.9 °C -2.8 °C 1018.5 hPa ENE 8 km/h 16.1 km/h 47% 0 mm 559 W/m2
17:04 8.1 °C -2.8 °C 1018.2 hPa NE 4.8 km/h 14.5 km/h 46% 0 mm 519 W/m2
17:19 7.9 °C -2.8 °C 1018.2 hPa NNE 8 km/h 14.5 km/h 48% 0 mm 469 W/m2
17:34 8.1 °C -3.9 °C 1017.8 hPa NNE 4.8 km/h 17.7 km/h 44% 0 mm 432 W/m2
17:49 8.2 °C -4.4 °C 1017.8 hPa NE 4.8 km/h 14.5 km/h 41% 0 mm 381 W/m2
18:04 8 °C -4.4 °C 1017.5 hPa NE 9.7 km/h 17.7 km/h 41% 0 mm 338 W/m2
18:19 7.9 °C -4.4 °C 1017.2 hPa NE 6.4 km/h 17.7 km/h 41% 0 mm 292 W/m2
18:34 7.8 °C -5 °C 1017.2 hPa NE 8 km/h 16.1 km/h 41% 0 mm 44 W/m2
18:49 7.6 °C -4.4 °C 1017.2 hPa NNE 12.9 km/h 17.7 km/h 42% 0 mm 39 W/m2
19:04 7.4 °C -4.4 °C 1016.8 hPa NE 11.3 km/h 16.1 km/h 44% 0 mm 35 W/m2
19:19 7.2 °C -3.9 °C 1016.8 hPa NE 11.3 km/h 16.1 km/h 45% 0 mm 32 W/m2
19:34 6.9 °C -3.9 °C 1016.8 hPa NE 9.7 km/h 16.1 km/h 46% 0 mm 26 W/m2
19:49 6.6 °C -3.9 °C 1017.2 hPa NNE 9.7 km/h 17.7 km/h 47% 0 mm 19 W/m2
20:04 6.1 °C -3.3 °C 1017.2 hPa NE 6.4 km/h 9.7 km/h 51% 0 mm 12 W/m2
20:19 5.5 °C -3.3 °C 1017.2 hPa NE 3.2 km/h 11.3 km/h 53% 0 mm 5 W/m2
20:34 4.7 °C -3.3 °C 1016.8 hPa NE 1.6 km/h 8 km/h 57% 0 mm 0 W/m2
20:49 4.1 °C -3.3 °C 1016.8 hPa NE 4.8 km/h 11.3 km/h 59% 0 mm 0 W/m2
21:04 3.6 °C -3.3 °C 1016.8 hPa NE 9.7 km/h 12.9 km/h 61% 0 mm 0 W/m2
21:19 3.2 °C -3.3 °C 1017.2 hPa NE 6.4 km/h 14.5 km/h 64% 0 mm 0 W/m2
21:34 2.7 °C -3.3 °C 1017.5 hPa Calm   9.7 km/h 65% 0 mm 0 W/m2
21:49 2 °C -3.3 °C 1017.8 hPa Calm   6.4 km/h 67% 0 mm 0 W/m2
22:04 1.3 °C -3.9 °C 1018.2 hPa Calm   3.2 km/h 70% 0 mm 0 W/m2
22:19 0.9 °C -3.9 °C 1018.2 hPa Calm     71% 0 mm 0 W/m2
22:34 0.7 °C -3.3 °C 1018.2 hPa NE 1.6 km/h 6.4 km/h 74% 0 mm 0 W/m2
22:49 0.9 °C -3.3 °C 1018.2 hPa NE 3.2 km/h 6.4 km/h 74% 0 mm 0 W/m2
23:04 0.6 °C -3.3 °C 1018.2 hPa NE 1.6 km/h 4.8 km/h 75% 0 mm 0 W/m2
23:19 0.1 °C -3.9 °C 1018.5 hPa Calm   1.6 km/h 76% 0 mm 0 W/m2
23:34 -0.3 °C -3.9 °C 1018.5 hPa Calm     77% 0 mm 0 W/m2
23:49 -0.7 °C -3.9 °C 1018.5 hPa Calm     78% 0 mm 0 W/m2